Time;durP1;ratioP1;P1;durP2;ratioP2;P2;SDS_P1;SDS_P2;PMS_P1;PMS_P2;Temp;Humidity;BMP_temperature;BMP_pressure;BME280_temperature;BME280_humidity;BME280_pressure;Samples;Min_cycle;Max_cycle;Signal;HPM_P1;HPM_P2
2020/12/03 00:02:01;;;;;;;0.65;0.65;;;4.90;1.00;;;;;;5013928;28;20037;-86
2020/12/03 00:04:28;;;;;;;0.50;0.50;;;4.90;1.00;;;;;;5009471;28;20084;-85
2020/12/03 00:06:59;;;;;;;0.20;0.20;;;4.90;1.00;;;;;;5025511;28;20560;-86
2020/12/03 00:09:26;;;;;;;8.48;1.73;;;4.90;1.00;;;;;;5069037;28;20060;-85
2020/12/03 00:11:57;;;;;;;0.25;0.17;;;4.90;1.00;;;;;;5069915;28;20118;-85
2020/12/03 00:14:23;;;;;;;1.02;0.98;;;4.80;1.00;;;;;;5073559;28;20035;-85
2020/12/03 00:16:50;;;;;;;4.97;1.33;;;4.80;1.00;;;;;;5070159;28;20045;-85
2020/12/03 00:19:19;;;;;;;0.45;0.45;;;4.80;1.00;;;;;;5069623;28;20043;-85
2020/12/03 00:21:55;;;;;;;0.85;0.85;;;4.80;1.00;;;;;;5070585;28;20023;-85
2020/12/03 00:24:24;;;;;;;1.60;1.50;;;4.80;1.00;;;;;;5085504;28;20110;-85
2020/12/03 00:26:51;;;;;;;0.10;0.10;;;4.80;1.00;;;;;;5068401;28;20032;-86
2020/12/03 00:29:18;;;;;;;0.73;0.60;;;4.80;1.00;;;;;;5069668;28;20036;-87
2020/12/03 00:31:46;;;;;;;2.03;1.13;;;4.70;1.00;;;;;;5068827;28;20064;-86
2020/12/03 00:34:13;;;;;;;1.42;1.38;;;4.70;1.00;;;;;;5069610;28;20516;-86
2020/12/03 00:36:40;;;;;;;0.55;0.40;;;4.70;1.00;;;;;;5068646;28;20107;-87
2020/12/03 00:39:13;;;;;;;0.65;0.65;;;4.70;1.00;;;;;;5069673;28;20515;-87
2020/12/03 00:41:39;;;;;;;0.95;0.85;;;4.70;1.00;;;;;;5069388;28;20060;-86
2020/12/03 00:44:06;;;;;;;0.10;0.10;;;4.70;1.00;;;;;;5059929;28;20025;-86
2020/12/03 00:46:34;;;;;;;35.25;1.10;;;4.60;1.00;;;;;;5080175;28;20054;-87
2020/12/03 00:49:01;;;;;;;0.40;0.40;;;4.60;1.00;;;;;;5068595;28;20046;-87
2020/12/03 00:51:27;;;;;;;0.68;0.68;;;4.70;1.00;;;;;;5058295;28;20119;-86
2020/12/03 00:53:54;;;;;;;0.85;0.82;;;4.70;1.00;;;;;;5067303;28;20043;-87
2020/12/03 00:56:21;;;;;;;0.45;0.45;;;4.70;1.00;;;;;;5067160;28;20123;-86
2020/12/03 00:58:49;;;;;;;0.60;0.60;;;4.80;1.00;;;;;;5068155;28;20032;-86
2020/12/03 01:01:17;;;;;;;0.93;0.93;;;4.80;1.00;;;;;;5067725;28;20148;-87
2020/12/03 01:03:44;;;;;;;0.30;0.30;;;4.90;1.00;;;;;;5069323;28;20031;-86
2020/12/03 01:06:11;;;;;;;0.20;0.20;;;4.90;99.90;;;;;;5080847;28;20032;-86
2020/12/03 01:08:37;;;;;;;1.65;1.55;;;4.90;99.90;;;;;;5067679;28;20594;-86
2020/12/03 01:11:04;;;;;;;0.50;0.50;;;4.90;99.90;;;;;;5067900;28;20039;-86
2020/12/03 01:13:30;;;;;;;;;;;4.80;99.90;;;;;;5068736;28;20051;-87
2020/12/03 01:15:57;;;;;;;0.10;0.10;;;4.70;99.90;;;;;;5069055;28;19915;-86
2020/12/03 01:18:24;;;;;;;0.47;0.43;;;4.80;99.90;;;;;;5067026;28;20470;-86
2020/12/03 01:20:50;;;;;;;6.97;0.60;;;4.80;99.90;;;;;;5068519;28;20507;-86
2020/12/03 01:23:17;;;;;;;0.40;0.40;;;4.80;99.90;;;;;;5066364;28;20028;-86
2020/12/03 01:25:43;;;;;;;1.45;0.85;;;4.80;99.90;;;;;;5062345;28;20036;-86
2020/12/03 01:28:09;;;;;;;0.20;0.20;;;4.80;99.90;;;;;;5067282;28;20035;-86
2020/12/03 01:30:35;;;;;;;0.63;0.63;;;4.70;99.90;;;;;;5068070;28;20562;-85
2020/12/03 01:33:02;;;;;;;0.93;0.67;;;4.70;99.90;;;;;;5067937;28;20064;-86
2020/12/03 01:35:28;;;;;;;0.57;0.57;;;4.80;99.90;;;;;;5063747;28;20412;-86
2020/12/03 01:37:54;;;;;;;1.43;1.30;;;4.80;99.90;;;;;;5059036;28;20098;-85
2020/12/03 01:40:24;;;;;;;0.47;0.47;;;4.80;99.90;;;;;;5067922;28;20111;-86
2020/12/03 01:42:52;;;;;;;1.60;1.50;;;4.80;99.90;;;;;;5068734;28;20033;-86
2020/12/03 01:45:57;;;;;;;0.60;0.60;;;4.90;99.90;;;;;;5067824;28;20017;-86
2020/12/03 01:48:47;;;;;;;0.22;0.22;;;4.90;99.90;;;;;;5067649;28;20025;-85
2020/12/03 01:51:25;;;;;;;0.52;0.52;;;4.90;99.90;;;;;;5059788;28;20021;-86
2020/12/03 01:53:53;;;;;;;0.10;0.10;;;4.90;99.90;;;;;;5068442;28;20447;-86
2020/12/03 01:56:40;;;;;;;0.95;0.95;;;4.90;99.90;;;;;;5083509;28;20028;-86
2020/12/03 01:59:08;;;;;;;6.45;1.45;;;4.90;99.90;;;;;;5068435;28;20024;-85
2020/12/03 02:01:34;;;;;;;0.65;0.65;;;4.90;99.90;;;;;;5067647;28;20031;-85
2020/12/03 02:04:01;;;;;;;0.15;0.15;;;4.80;99.90;;;;;;5066886;28;20032;-86
2020/12/03 02:06:31;;;;;;;0.13;0.13;;;4.80;99.90;;;;;;5066687;28;20035;-86
2020/12/03 02:08:57;;;;;;;0.98;0.93;;;4.80;99.90;;;;;;5067741;28;20044;-86
2020/12/03 02:11:24;;;;;;;1.40;1.30;;;4.80;99.90;;;;;;5067849;28;20032;-87
2020/12/03 02:14:00;;;;;;;0.32;0.32;;;4.80;99.90;;;;;;5063652;28;20048;-87
2020/12/03 02:16:31;;;;;;;0.97;0.97;;;4.80;99.90;;;;;;5068069;28;20024;-86
2020/12/03 02:18:59;;;;;;;0.73;0.60;;;4.80;99.90;;;;;;5065755;28;20070;-86
2020/12/03 02:21:26;;;;;;;0.95;0.95;;;4.80;99.90;;;;;;5065754;28;20034;-86
2020/12/03 02:23:54;;;;;;;0.20;0.20;;;4.80;99.90;;;;;;5067211;28;20017;-86
2020/12/03 02:26:20;;;;;;;2.67;2.08;;;4.80;99.90;;;;;;5065499;28;20024;-86
2020/12/03 02:28:47;;;;;;;0.47;0.47;;;4.70;99.90;;;;;;5067724;28;20137;-86
2020/12/03 02:31:13;;;;;;;0.65;0.65;;;4.70;99.90;;;;;;5066777;28;20031;-86
2020/12/03 02:33:39;;;;;;;0.20;0.20;;;4.70;99.90;;;;;;5067679;28;20830;-86
2020/12/03 02:36:05;;;;;;;0.47;0.47;;;4.60;99.90;;;;;;5067595;28;20758;-86
2020/12/03 02:38:32;;;;;;;0.30;0.30;;;4.50;99.90;;;;;;5067674;28;20033;-86
2020/12/03 02:41:00;;;;;;;0.35;0.35;;;4.50;99.90;;;;;;5067411;28;20033;-87
2020/12/03 02:43:28;;;;;;;0.65;0.65;;;4.50;99.90;;;;;;5063601;28;20028;-86
2020/12/03 02:45:58;;;;;;;0.32;0.32;;;4.40;99.90;;;;;;5083608;28;20121;-86
2020/12/03 02:48:25;;;;;;;0.85;0.85;;;4.50;99.90;;;;;;5065214;28;20575;-86
2020/12/03 02:50:52;;;;;;;0.73;0.73;;;4.50;99.90;;;;;;5065646;28;20116;-86
2020/12/03 02:53:19;;;;;;;0.35;0.35;;;4.60;99.90;;;;;;5067063;28;20031;-86
2020/12/03 02:55:45;;;;;;;0.30;0.30;;;4.60;99.90;;;;;;5065955;28;20102;-86
2020/12/03 02:58:11;;;;;;;0.43;0.43;;;4.60;99.90;;;;;;5065955;28;20024;-86
2020/12/03 03:00:37;;;;;;;6.45;3.30;;;4.60;99.90;;;;;;5067231;28;20036;-86
2020/12/03 03:03:03;;;;;;;2.45;2.08;;;4.60;99.90;;;;;;5066204;28;20413;-86
2020/12/03 03:05:30;;;;;;;1.77;1.13;;;4.60;99.90;;;;;;5062453;28;20029;-86
2020/12/03 03:07:56;;;;;;;0.23;0.23;;;4.60;99.90;;;;;;5066710;28;20055;-87
2020/12/03 03:10:22;;;;;;;1.90;1.80;;;4.60;99.90;;;;;;5067139;28;20760;-86
2020/12/03 03:12:52;;;;;;;0.10;0.10;;;4.60;99.90;;;;;;5067501;28;20043;-86
2020/12/03 03:15:18;;;;;;;1.75;1.65;;;4.60;99.90;;;;;;5065386;28;20111;-86
2020/12/03 03:17:45;;;;;;;0.93;0.93;;;4.50;99.90;;;;;;5065356;28;20060;-86
2020/12/03 03:20:12;;;;;;;;;;;4.50;99.90;;;;;;5067981;28;20050;-86
2020/12/03 03:22:40;;;;;;;0.45;0.45;;;4.40;99.90;;;;;;5067361;28;20395;-86
2020/12/03 03:25:07;;;;;;;1.73;0.85;;;4.40;99.90;;;;;;5067615;28;20028;-86
2020/12/03 03:27:33;;;;;;;;;;;4.40;99.90;;;;;;5066530;28;20028;-86
2020/12/03 03:29:59;;;;;;;0.88;0.88;;;4.40;99.90;;;;;;5066439;28;20427;-86
2020/12/03 03:32:25;;;;;;;5.28;2.60;;;4.30;99.90;;;;;;5066684;28;20033;-86
2020/12/03 03:34:50;;;;;;;0.20;0.20;;;4.30;99.90;;;;;;5067323;28;20067;-86
2020/12/03 03:37:16;;;;;;;0.70;0.70;;;4.40;99.90;;;;;;5066172;28;20052;-85
2020/12/03 03:39:42;;;;;;;0.77;0.77;;;4.30;99.90;;;;;;5065864;28;20040;-85
2020/12/03 03:42:08;;;;;;;0.32;0.32;;;4.30;99.90;;;;;;5067227;28;20472;-86
2020/12/03 03:44:33;;;;;;;0.17;0.17;;;4.30;99.90;;;;;;5067080;28;20021;-86
2020/12/03 03:46:59;;;;;;;0.30;0.30;;;4.30;99.90;;;;;;5063969;28;20056;-85
2020/12/03 03:49:25;;;;;;;0.95;0.95;;;4.30;99.90;;;;;;5081505;28;20496;-85
2020/12/03 03:51:51;;;;;;;1.40;1.10;;;4.30;99.90;;;;;;5067062;28;20232;-86
2020/12/03 03:54:17;;;;;;;3.10;1.25;;;4.30;99.90;;;;;;5078123;28;20029;-86
2020/12/03 03:56:42;;;;;;;0.88;0.88;;;4.20;99.90;;;;;;5068805;28;20058;-86
2020/12/03 03:59:08;;;;;;;1.20;1.10;;;4.30;99.90;;;;;;5070277;28;20547;-86
2020/12/03 04:01:34;;;;;;;0.15;0.15;;;4.40;99.90;;;;;;5070006;28;20031;-85
2020/12/03 04:04:00;;;;;;;0.85;0.85;;;4.30;99.90;;;;;;5085000;28;20556;-86
2020/12/03 04:06:26;;;;;;;0.30;0.30;;;4.40;99.90;;;;;;5069878;28;20024;-85
2020/12/03 04:08:51;;;;;;;1.38;0.80;;;4.40;99.90;;;;;;5069429;28;20016;-86
2020/12/03 04:11:18;;;;;;;0.30;0.30;;;4.30;99.90;;;;;;5069259;28;20500;-85
2020/12/03 04:13:43;;;;;;;0.80;0.80;;;4.20;99.90;;;;;;5069765;28;20021;-85
2020/12/03 04:16:11;;;;;;;1.73;0.90;;;4.20;99.90;;;;;;5069325;28;20032;-85
2020/12/03 04:18:38;;;;;;;2.17;1.20;;;4.30;99.90;;;;;;5069260;28;20052;-84
2020/12/03 04:21:06;;;;;;;;;;;4.20;99.90;;;;;;5069681;28;20589;-85
2020/12/03 04:23:32;;;;;;;0.40;0.40;;;4.30;99.90;;;;;;5070322;28;19997;-85
2020/12/03 04:25:57;;;;;;;0.10;0.10;;;4.30;99.90;;;;;;5068974;28;20090;-85
2020/12/03 04:28:23;;;;;;;4.18;1.50;;;4.20;99.90;;;;;;5068928;28;20082;-85
2020/12/03 04:30:49;;;;;;;0.45;0.45;;;4.20;99.90;;;;;;5069480;28;20032;-85
2020/12/03 04:33:15;;;;;;;0.68;0.60;;;4.10;99.90;;;;;;5069054;28;20093;-84
2020/12/03 04:35:41;;;;;;;1.43;1.13;;;4.10;99.90;;;;;;5064872;28;20739;-85
2020/12/03 04:38:10;;;;;;;0.10;0.10;;;4.20;99.90;;;;;;5069572;28;20275;-85
2020/12/03 04:40:39;;;;;;;0.45;0.45;;;4.10;99.90;;;;;;5068320;28;20029;-85
2020/12/03 04:43:35;;;;;;;0.38;0.38;;;4.10;99.90;;;;;;5069168;28;20025;-85
2020/12/03 04:46:06;;;;;;;3.15;0.77;;;4.10;99.90;;;;;;5068167;28;20105;-85
2020/12/03 04:48:44;;;;;;;0.45;0.45;;;4.20;99.90;;;;;;5070200;28;20122;-85
2020/12/03 04:51:45;;;;;;;0.47;0.47;;;4.20;99.90;;;;;;5068916;28;20179;-86
2020/12/03 04:55:02;;;;;;;0.30;0.30;;;4.20;99.90;;;;;;5067696;28;20762;-86
2020/12/03 04:57:40;;;;;;;0.30;0.30;;;4.20;99.90;;;;;;5065565;28;20051;-86
2020/12/03 05:00:18;;;;;;;0.68;0.68;;;4.10;99.90;;;;;;5046671;28;20032;-86
2020/12/03 05:02:53;;;;;;;0.40;0.40;;;4.20;99.90;;;;;;5051222;28;20792;-86
2020/12/03 05:05:37;;;;;;;0.55;0.55;;;4.10;99.90;;;;;;5065065;28;20468;-86
2020/12/03 05:08:08;;;;;;;0.22;0.22;;;4.20;99.90;;;;;;5049815;28;20017;-86
2020/12/03 05:10:44;;;;;;;0.30;0.30;;;4.10;99.90;;;;;;5050002;28;20891;-86
2020/12/03 05:13:41;;;;;;;3.17;1.50;;;4.10;99.90;;;;;;5049109;28;20041;-85
2020/12/03 05:16:26;;;;;;;1.17;0.70;;;4.30;99.90;;;;;;5065824;28;20036;-85
2020/12/03 05:18:58;;;;;;;0.30;0.30;;;4.30;99.90;;;;;;5066801;28;20072;-85
2020/12/03 05:21:31;;;;;;;0.30;0.30;;;4.20;99.90;;;;;;5047625;28;20025;-85
2020/12/03 05:23:57;;;;;;;0.98;0.98;;;4.20;99.90;;;;;;5048167;28;20102;-86
2020/12/03 05:26:26;;;;;;;0.20;0.20;;;4.30;99.90;;;;;;5048851;28;20123;-86
2020/12/03 05:29:02;;;;;;;0.10;0.10;;;4.10;99.90;;;;;;5065431;28;20024;-85
2020/12/03 05:31:31;;;;;;;0.75;0.50;;;4.20;99.90;;;;;;5056853;28;20029;-85
2020/12/03 05:34:06;;;;;;;0.20;0.20;;;4.10;99.90;;;;;;5064231;28;20104;-85
2020/12/03 05:36:36;;;;;;;0.30;0.30;;;4.10;99.90;;;;;;5060251;28;20081;-85
2020/12/03 05:39:06;;;;;;;0.10;0.10;;;4.10;99.90;;;;;;5065144;28;20068;-87
2020/12/03 05:41:36;;;;;;;2.35;1.52;;;4.10;99.90;;;;;;5065974;28;20020;-87
2020/12/03 05:44:06;;;;;;;0.30;0.30;;;4.10;99.90;;;;;;5069161;28;20024;-91
2020/12/03 05:46:34;;;;;;;2.92;1.70;;;4.00;99.90;;;;;;5069523;28;20046;-90
2020/12/03 05:49:03;;;;;;;0.15;0.15;;;3.90;99.90;;;;;;5068595;28;20432;-91
2020/12/03 05:51:33;;;;;;;1.75;1.65;;;4.00;99.90;;;;;;5059090;28;20028;-89
2020/12/03 05:54:07;;;;;;;0.20;0.20;;;4.10;99.90;;;;;;5065998;28;20111;-90
2020/12/03 05:56:32;;;;;;;1.48;1.38;;;3.90;99.90;;;;;;5067774;28;20025;-90
2020/12/03 05:59:18;;;;;;;2.15;0.63;;;4.00;99.90;;;;;;5055626;28;20551;-89
2020/12/03 06:02:13;;;;;;;0.20;0.20;;;4.00;99.90;;;;;;5065234;28;20048;-89
2020/12/03 06:04:51;;;;;;;0.20;0.20;;;4.00;1.00;;;;;;5058373;28;20032;-90
2020/12/03 06:07:46;;;;;;;0.60;0.60;;;4.00;1.00;;;;;;5076297;28;20063;-91
2020/12/03 06:10:39;;;;;;;0.10;0.10;;;3.90;99.90;;;;;;5073437;28;20097;-88
2020/12/03 06:13:28;;;;;;;1.55;1.45;;;3.90;92.70;;;;;;5063286;28;20488;-90
2020/12/03 06:16:00;;;;;;;0.10;0.10;;;3.80;99.90;;;;;;5053972;28;20033;-89
2020/12/03 06:18:56;;;;;;;0.30;0.30;;;3.90;99.90;;;;;;5064754;28;20060;-89
2020/12/03 06:21:50;;;;;;;3.03;1.43;;;4.10;99.90;;;;;;5063611;28;20032;-90
2020/12/03 06:24:46;;;;;;;0.35;0.35;;;4.30;1.00;;;;;;5067880;28;20020;-88
2020/12/03 06:27:19;;;;;;;0.20;0.20;;;4.20;99.90;;;;;;5063080;28;20404;-90
2020/12/03 06:30:14;;;;;;;0.15;0.15;;;4.30;1.00;;;;;;5067265;28;20042;-89
2020/12/03 06:33:03;;;;;;;0.17;0.17;;;4.30;42.90;;;;;;5079599;28;20143;-89
2020/12/03 06:35:41;;;;;;;0.10;0.10;;;4.30;99.90;;;;;;5054772;28;20021;-88
2020/12/03 06:38:43;;;;;;;0.40;0.40;;;4.40;99.90;;;;;;5067880;28;20040;-88
2020/12/03 06:41:34;;;;;;;1.17;0.85;;;4.40;99.90;;;;;;5064690;28;20020;-90
2020/12/03 06:44:33;;;;;;;1.00;1.00;;;4.30;99.90;;;;;;5064096;28;20029;-90
2020/12/03 06:47:24;;;;;;;1.17;0.77;;;4.40;1.00;;;;;;5063701;28;20020;-88
2020/12/03 06:50:31;;;;;;;0.15;0.15;;;4.50;42.70;;;;;;5046827;28;20721;-88
2020/12/03 06:53:18;;;;;;;0.17;0.17;;;4.50;99.90;;;;;;5066186;28;20678;-87
2020/12/03 06:56:16;;;;;;;0.75;0.75;;;4.60;34.50;;;;;;5066608;28;20025;-88
2020/12/03 06:59:07;;;;;;;0.22;0.22;;;4.60;61.30;;;;;;5066968;28;20037;-87
2020/12/03 07:01:39;;;;;;;0.28;0.28;;;4.60;99.90;;;;;;5066273;28;20048;-86
2020/12/03 07:04:42;;;;;;;0.85;0.63;;;4.60;99.90;;;;;;5067705;28;20029;-87
2020/12/03 07:07:40;;;;;;;0.30;0.30;;;4.60;99.90;;;;;;5067531;28;20033;-87
2020/12/03 07:10:24;;;;;;;0.63;0.63;;;4.70;99.90;;;;;;5066494;28;20024;-86
2020/12/03 07:13:23;;;;;;;0.10;0.10;;;4.80;99.90;;;;;;5067092;28;20024;-84
2020/12/03 07:16:26;;;;;;;0.38;0.38;;;4.70;99.90;;;;;;5067851;28;20448;-85
2020/12/03 07:18:58;;;;;;;0.17;0.17;;;4.70;99.90;;;;;;5055834;28;20413;-87
2020/12/03 07:21:49;;;;;;;0.10;0.10;;;4.60;99.90;;;;;;5066595;28;20025;-86
2020/12/03 07:24:36;;;;;;;0.20;0.20;;;4.60;99.90;;;;;;5066856;28;20584;-86
2020/12/03 07:27:20;;;;;;;0.63;0.63;;;4.50;99.90;;;;;;5067152;28;20032;-87
2020/12/03 07:29:52;;;;;;;0.20;0.20;;;4.50;99.90;;;;;;5069047;28;20048;-87
2020/12/03 07:32:49;;;;;;;0.75;0.75;;;4.70;99.90;;;;;;5051339;28;20500;-88
2020/12/03 07:35:33;;;;;;;0.73;0.73;;;4.90;99.90;;;;;;5053526;28;20060;-87
2020/12/03 07:38:17;;;;;;;1.38;1.27;;;4.70;99.90;;;;;;5070419;28;20062;-87
2020/12/03 07:40:44;;;;;;;1.95;1.00;;;4.70;99.90;;;;;;5069364;28;20518;-87
2020/12/03 07:43:34;;;;;;;1.15;1.08;;;4.90;99.90;;;;;;5071312;28;20025;-87
2020/12/03 07:46:00;;;;;;;1.00;0.65;;;4.90;99.90;;;;;;5059008;28;20019;-87
2020/12/03 07:48:32;;;;;;;0.60;0.60;;;5.20;99.90;;;;;;5071190;28;20047;-88
2020/12/03 07:51:14;;;;;;;0.50;0.50;;;5.30;99.90;;;;;;5069746;28;20032;-87
2020/12/03 07:53:40;;;;;;;0.30;0.30;;;5.00;99.90;;;;;;5071193;28;20530;-87
2020/12/03 07:56:24;;;;;;;3.63;2.00;;;5.10;99.90;;;;;;5069161;28;20035;-87
2020/12/03 07:58:51;;;;;;;0.30;0.30;;;5.20;1.00;;;;;;5062361;28;20274;-88
2020/12/03 08:01:29;;;;;;;0.55;0.55;;;5.20;99.90;;;;;;5070734;28;20544;-88
2020/12/03 08:03:57;;;;;;;0.63;0.63;;;5.20;1.00;;;;;;5070995;28;20032;-90
2020/12/03 08:06:29;;;;;;;0.20;0.20;;;5.00;99.90;;;;;;5071277;28;20149;-86
2020/12/03 08:09:02;;;;;;;0.10;0.10;;;5.10;99.90;;;;;;5070030;28;20024;-88
2020/12/03 08:11:42;;;;;;;0.65;0.65;;;5.30;99.80;;;;;;5070453;28;20016;-87
2020/12/03 08:14:46;;;;;;;0.10;0.10;;;5.20;99.90;;;;;;5070259;28;20030;-88
2020/12/03 08:17:17;;;;;;;0.10;0.10;;;5.00;95.60;;;;;;5062191;28;20044;-90
2020/12/03 08:20:07;;;;;;;0.32;0.28;;;5.00;99.90;;;;;;5069937;28;20492;-91
2020/12/03 08:22:39;;;;;;;1.75;1.45;;;5.20;99.90;;;;;;5061314;28;20029;-90
2020/12/03 08:25:13;;;;;;;0.10;0.10;;;5.10;12.90;;;;;;5068347;28;20023;-91
2020/12/03 08:27:40;;;;;;;0.10;0.10;;;5.00;99.90;;;;;;5069724;28;20024;-91
2020/12/03 08:30:40;;;;;;;0.20;0.20;;;5.10;99.90;;;;;;5055783;28;20115;-90
2020/12/03 08:33:18;;;;;;;0.65;0.65;;;5.00;1.00;;;;;;5071298;28;20472;-90
2020/12/03 08:35:56;;;;;;;0.60;0.60;;;5.00;99.90;;;;;;5072714;28;20029;-90
2020/12/03 08:38:26;;;;;;;0.00;0.00;;;5.00;99.90;;;;;;5086363;28;20353;-90
2020/12/03 08:40:55;;;;;;;0.55;0.55;;;5.00;78.60;;;;;;5067657;28;20063;-89
2020/12/03 08:43:22;;;;;;;0.15;0.15;;;4.90;99.90;;;;;;5069331;28;20055;-89
2020/12/03 08:45:53;;;;;;;1.30;1.20;;;5.00;99.90;;;;;;5065197;28;20120;-89
2020/12/03 08:48:26;;;;;;;0.40;0.40;;;5.00;1.00;;;;;;5061877;28;20040;-89
2020/12/03 08:50:57;;;;;;;8.40;1.33;;;5.20;61.30;;;;;;5064395;28;20028;-89
2020/12/03 08:53:25;;;;;;;0.40;0.30;;;5.70;24.90;;;;;;5062547;28;20029;-89
2020/12/03 08:55:51;;;;;;;0.00;0.00;;;5.60;99.90;;;;;;5081022;28;20028;-90
2020/12/03 08:58:22;;;;;;;0.60;0.60;;;5.40;1.00;;;;;;5068885;28;20039;-89
2020/12/03 09:00:50;;;;;;;0.93;0.73;;;5.50;99.90;;;;;;5069895;28;20063;-89
2020/12/03 09:03:20;;;;;;;0.20;0.20;;;5.50;99.90;;;;;;5069682;28;20099;-89
2020/12/03 09:05:49;;;;;;;0.10;0.10;;;5.50;1.00;;;;;;5057277;28;20052;-89
2020/12/03 09:08:20;;;;;;;0.30;0.30;;;5.60;99.90;;;;;;5066495;28;20025;-89
2020/12/03 09:10:48;;;;;;;0.85;0.63;;;5.50;99.90;;;;;;5061222;28;20532;-89
2020/12/03 09:13:18;;;;;;;0.10;0.10;;;5.40;99.90;;;;;;5069366;28;20089;-89
2020/12/03 09:15:46;;;;;;;0.32;0.22;;;5.20;99.90;;;;;;5069390;28;20099;-89
2020/12/03 09:18:12;;;;;;;0.22;0.22;;;5.20;99.90;;;;;;5066749;28;20508;-90
2020/12/03 09:20:45;;;;;;;0.00;0.00;;;5.30;99.90;;;;;;5059082;28;20055;-90
2020/12/03 09:23:31;;;;;;;0.57;0.57;;;5.40;99.90;;;;;;5068151;28;20081;-90
2020/12/03 09:25:57;;;;;;;0.10;0.10;;;5.30;99.90;;;;;;5069771;28;20035;-90
2020/12/03 09:28:23;;;;;;;0.40;0.40;;;5.30;99.90;;;;;;5065713;28;20029;-90
2020/12/03 09:30:51;;;;;;;0.73;0.50;;;5.10;99.90;;;;;;5056964;28;20028;-90
2020/12/03 09:33:20;;;;;;;0.38;0.38;;;5.00;99.90;;;;;;5085148;28;20500;-90
2020/12/03 09:35:47;;;;;;;0.40;0.40;;;5.10;99.90;;;;;;5078160;28;20028;-90
2020/12/03 09:38:16;;;;;;;0.60;0.60;;;5.10;99.90;;;;;;5062973;28;20029;-90
2020/12/03 09:40:46;;;;;;;0.30;0.30;;;5.20;99.90;;;;;;5054391;28;20496;-90
2020/12/03 09:43:17;;;;;;;0.10;0.10;;;5.10;99.90;;;;;;5055024;28;20751;-90
2020/12/03 09:45:45;;;;;;;0.68;0.68;;;5.00;99.90;;;;;;5063435;28;20078;-90
2020/12/03 09:48:17;;;;;;;0.10;0.10;;;5.10;99.90;;;;;;5059260;28;20017;-91
2020/12/03 09:50:44;;;;;;;0.08;0.08;;;5.20;99.90;;;;;;5068220;28;20492;-90
2020/12/03 09:53:20;;;;;;;0.10;0.10;;;5.20;99.90;;;;;;5068735;28;20531;-91
2020/12/03 09:55:48;;;;;;;0.10;0.10;;;5.30;99.90;;;;;;5069241;28;20496;-90
2020/12/03 09:58:20;;;;;;;0.10;0.10;;;5.30;99.90;;;;;;5054138;28;20021;-90
2020/12/03 10:00:50;;;;;;;0.13;0.13;;;5.20;99.90;;;;;;5068177;28;20028;-91
2020/12/03 10:03:44;;;;;;;0.20;0.20;;;5.30;99.90;;;;;;5064663;28;20021;-91
2020/12/03 10:06:38;;;;;;;0.00;0.00;;;5.40;99.90;;;;;;5063136;28;20031;-91
2020/12/03 10:09:37;;;;;;;0.10;0.10;;;5.20;99.90;;;;;;5073043;28;20017;-90
2020/12/03 10:12:03;;;;;;;0.28;0.28;;;5.50;99.90;;;;;;5057445;28;20021;-91
2020/12/03 10:14:47;;;;;;;0.17;0.17;;;5.60;99.90;;;;;;5068087;28;20031;-91
2020/12/03 10:17:18;;;;;;;0.28;0.28;;;5.60;99.90;;;;;;5067668;28;20174;-90
2020/12/03 10:19:45;;;;;;;0.10;0.10;;;5.70;99.90;;;;;;5070324;28;20035;-92
2020/12/03 10:22:45;;;;;;;0.30;0.30;;;5.60;99.90;;;;;;5051166;28;20499;-91
2020/12/03 10:25:18;;;;;;;0.20;0.20;;;5.60;99.90;;;;;;5053734;28;20020;-91
2020/12/03 10:28:08;;;;;;;0.10;0.10;;;5.50;99.90;;;;;;5073486;28;20025;-91
2020/12/03 10:30:35;;;;;;;0.10;0.10;;;5.70;99.90;;;;;;5067781;28;20108;-91
2020/12/03 10:33:03;;;;;;;;;;;11.60;99.90;;;;;;5060632;28;20035;-91
2020/12/03 10:35:30;;;;;;;0.00;0.00;;;11.70;99.90;;;;;;5066997;28;19911;-91
2020/12/03 10:38:02;;;;;;;0.10;0.10;;;11.70;99.90;;;;;;5069087;28;20032;-92
2020/12/03 10:40:29;;;;;;;0.05;0.05;;;11.80;99.90;;;;;;5083902;28;20036;-91
2020/12/03 10:43:08;;;;;;;0.10;0.10;;;11.70;99.90;;;;;;5068429;28;20103;-91
2020/12/03 10:45:39;;;;;;;0.68;0.68;;;11.70;99.90;;;;;;5065431;28;20086;-91
2020/12/03 10:48:13;;;;;;;0.55;0.55;;;11.80;99.90;;;;;;5058218;28;20020;-92
2020/12/03 10:50:50;;;;;;;0.28;0.28;;;11.90;99.90;;;;;;5067430;28;20025;-92
2020/12/03 10:53:23;;;;;;;0.10;0.10;;;11.70;99.90;;;;;;5084215;28;20115;-92
2020/12/03 10:56:04;;;;;;;0.15;0.15;;;11.50;99.90;;;;;;5083794;28;20040;-91
2020/12/03 10:58:44;;;;;;;0.10;0.10;;;11.60;99.90;;;;;;5075681;28;20074;-91
2020/12/03 11:01:27;;;;;;;0.20;0.20;;;11.50;99.90;;;;;;5061563;28;20115;-91
2020/12/03 11:03:54;;;;;;;0.30;0.30;;;11.70;99.90;;;;;;5073350;28;20040;-91
2020/12/03 11:06:27;;;;;;;;;;;11.70;99.90;;;;;;5068428;28;20024;-91
2020/12/03 11:08:54;;;;;;;0.10;0.10;;;11.60;99.90;;;;;;5071531;28;19947;-91
2020/12/03 11:11:21;;;;;;;0.10;0.10;;;11.70;99.90;;;;;;5072533;28;20025;-91
2020/12/03 11:13:47;;;;;;;0.20;0.20;;;11.60;99.90;;;;;;5079692;28;20123;-92
2020/12/03 11:16:17;;;;;;;0.10;0.10;;;11.40;99.90;;;;;;5065461;28;20119;-91
2020/12/03 11:18:49;;;;;;;0.30;0.30;;;11.60;99.90;;;;;;5087798;28;20060;-92
2020/12/03 11:21:22;;;;;;;0.10;0.10;;;11.50;99.90;;;;;;5071906;28;20095;-91
2020/12/03 11:24:07;;;;;;;0.15;0.15;;;11.60;99.90;;;;;;5073366;28;20025;-89
2020/12/03 11:26:34;;;;;;;0.05;0.05;;;11.50;99.90;;;;;;5069772;28;20107;-89
2020/12/03 11:29:17;;;;;;;0.10;0.10;;;11.50;99.90;;;;;;5070688;28;20044;-89
2020/12/03 11:31:44;;;;;;;0.20;0.20;;;11.40;99.90;;;;;;5070344;28;20028;-90
2020/12/03 11:34:10;;;;;;;0.10;0.10;;;11.30;99.90;;;;;;5070514;28;20487;-90
2020/12/03 11:36:38;;;;;;;0.00;0.00;;;11.40;99.90;;;;;;5087427;28;20576;-89
2020/12/03 11:39:06;;;;;;;0.45;0.45;;;11.40;99.90;;;;;;5086273;28;20037;-89
2020/12/03 11:44:26;;;;;;;0.25;0.25;;;11.60;99.90;;;;;;5070739;28;20392;-89
2020/12/03 11:49:28;;;;;;;1.73;1.35;;;11.60;99.90;;;;;;5066365;28;20043;-89
2020/12/03 11:51:54;;;;;;;0.10;0.10;;;11.70;99.90;;;;;;5086268;28;20028;-90
2020/12/03 11:54:30;;;;;;;0.00;0.00;;;11.90;99.90;;;;;;5058999;28;20641;-90
2020/12/03 11:56:57;;;;;;;0.17;0.17;;;11.70;99.90;;;;;;5059714;28;20029;-90
2020/12/03 11:59:33;;;;;;;0.20;0.20;;;11.70;99.90;;;;;;5078668;28;20078;-90
2020/12/03 12:02:04;;;;;;;0.10;0.10;;;11.80;99.90;;;;;;5070105;28;20021;-90
2020/12/03 12:04:40;;;;;;;0.10;0.10;;;12.00;99.90;;;;;;5058306;28;20025;-90
2020/12/03 12:07:13;;;;;;;0.10;0.10;;;12.10;99.90;;;;;;5085583;28;20028;-92
2020/12/03 12:09:54;;;;;;;0.10;0.10;;;12.00;99.90;;;;;;5085767;28;20484;-92
2020/12/03 12:12:21;;;;;;;1.20;0.90;;;12.10;99.90;;;;;;5058600;28;20028;-93
2020/12/03 12:14:47;;;;;;;0.88;0.80;;;12.10;99.90;;;;;;5056736;28;20083;-93
2020/12/03 12:17:14;;;;;;;0.10;0.10;;;12.20;99.90;;;;;;5087702;28;20045;-92
2020/12/03 12:19:42;;;;;;;0.30;0.30;;;12.40;99.90;;;;;;5087733;28;20032;-92
2020/12/03 12:22:10;;;;;;;0.00;0.00;;;12.30;99.90;;;;;;5087911;28;20123;-92
2020/12/03 12:24:41;;;;;;;0.10;0.10;;;12.20;99.90;;;;;;5088047;28;20032;-93
2020/12/03 12:27:07;;;;;;;0.10;0.10;;;12.20;99.90;;;;;;5087940;28;20032;-93
2020/12/03 12:29:32;;;;;;;0.10;0.10;;;12.20;99.90;;;;;;5062533;28;20506;-93
2020/12/03 12:31:59;;;;;;;0.10;0.10;;;12.20;99.90;;;;;;5081603;28;20055;-93
2020/12/03 12:34:25;;;;;;;0.10;0.10;;;12.10;99.90;;;;;;5050853;28;20059;-93
2020/12/03 12:36:51;;;;;;;0.20;0.20;;;12.40;99.90;;;;;;5081826;28;20045;-92
2020/12/03 12:39:17;;;;;;;0.10;0.10;;;12.50;99.90;;;;;;5065634;28;20031;-93
2020/12/03 12:41:58;;;;;;;0.32;0.32;;;12.50;99.90;;;;;;5062612;28;20052;-92
2020/12/03 12:44:24;;;;;;;0.10;0.10;;;12.40;99.90;;;;;;5080828;28;20075;-93
2020/12/03 12:47:10;;;;;;;0.30;0.30;;;12.40;99.90;;;;;;5050255;28;20036;-93
2020/12/03 12:49:36;;;;;;;0.10;0.10;;;12.20;99.90;;;;;;5054544;28;20090;-92
2020/12/03 12:52:02;;;;;;;0.47;0.47;;;12.30;99.90;;;;;;5087604;28;20488;-93
2020/12/03 12:54:28;;;;;;;0.10;0.10;;;12.30;99.90;;;;;;5071305;28;20043;-93
2020/12/03 12:56:55;;;;;;;0.32;0.32;;;12.20;99.90;;;;;;5077738;28;20025;-93
2020/12/03 12:59:22;;;;;;;0.10;0.10;;;12.20;99.90;;;;;;5065910;28;20174;-92
2020/12/03 13:01:49;;;;;;;0.10;0.10;;;12.30;99.90;;;;;;5087052;28;20033;-91
2020/12/03 13:04:16;;;;;;;0.17;0.17;;;12.20;99.90;;;;;;5070213;28;20029;-92
2020/12/03 13:06:42;;;;;;;0.10;0.10;;;12.20;99.90;;;;;;5057454;28;20028;-92
2020/12/03 13:09:09;;;;;;;0.10;0.10;;;12.20;99.90;;;;;;5069890;28;20514;-92
2020/12/03 13:11:36;;;;;;;0.10;0.10;;;12.30;99.90;;;;;;5068271;28;20021;-92
2020/12/03 13:14:06;;;;;;;0.00;0.00;;;12.30;99.90;;;;;;5049596;28;20029;-93
2020/12/03 13:16:32;;;;;;;0.22;0.22;;;12.10;99.90;;;;;;5066648;28;20112;-93
2020/12/03 13:18:58;;;;;;;0.00;0.00;;;12.20;99.90;;;;;;5086919;28;20074;-93
2020/12/03 13:21:24;;;;;;;0.10;0.10;;;12.20;99.90;;;;;;5085436;28;20024;-92
2020/12/03 13:23:51;;;;;;;0.15;0.15;;;12.30;99.90;;;;;;5057120;28;20028;-93
2020/12/03 13:26:17;;;;;;;0.10;0.10;;;12.20;99.90;;;;;;5086215;28;20055;-92
2020/12/03 13:28:44;;;;;;;0.10;0.10;;;12.30;99.90;;;;;;5081339;28;20489;-93
2020/12/03 13:31:10;;;;;;;0.08;0.08;;;12.30;99.90;;;;;;5060885;28;20025;-92
2020/12/03 13:33:36;;;;;;;0.73;0.73;;;12.40;99.90;;;;;;5070474;28;20067;-92